Terminal Aerodrome Forecast
Issued by NWS Grand Forks, ND

Home | Current Version | Previous Version | Graphics & Text | Print | Product List | Glossary On
Versions: 1 2 3 4 5 6 7 8 9 10 11 12 13 14 15 16 17
000
FTUS43 KFGF 240500
TAFGFK
TAF
KGFK 240536Z 2406/2506 34015G25KT P6SM OVC019
      TEMPO 2406/2408 3SM -SN BR
     FM241200 34024G29KT P6SM OVC025
     FM242300 34012KT P6SM SCT025=

USA.gov is the U.S. government's official web portal to all federal, state and local government web resources and services.